createdAt,value
2022-08-08T00:00:53.803Z,48.18
2022-08-08T00:01:08.597Z,46.41
2022-08-08T00:02:30.011Z,41.89
2022-08-08T00:03:19.811Z,43.02
2022-08-08T00:04:02.687Z,42.38
2022-08-08T00:05:01.608Z,42.22
2022-08-08T00:06:03.738Z,41.09
2022-08-08T00:07:12.493Z,40.61
2022-08-08T00:08:02.582Z,46.41
2022-08-08T00:09:01.555Z,46.25
2022-08-08T00:10:01.572Z,43.99
2022-08-08T00:11:01.536Z,47.53
2022-08-08T00:12:10.009Z,43.83
2022-08-08T00:13:01.526Z,45.44
2022-08-08T00:14:17.501Z,47.05
2022-08-08T00:15:04.879Z,41.73
2022-08-08T00:16:01.499Z,42.70
2022-08-08T00:17:01.479Z,42.06
2022-08-08T00:18:03.870Z,41.89
2022-08-08T00:19:01.460Z,48.02
2022-08-08T00:20:01.445Z,44.63
2022-08-08T00:21:01.462Z,44.31
2022-08-08T00:22:01.430Z,47.05
2022-08-08T00:23:01.418Z,48.18
2022-08-08T00:24:01.423Z,43.83
2022-08-08T00:25:01.426Z,42.06
2022-08-08T00:26:01.411Z,40.77
2022-08-08T00:27:01.385Z,44.63
2022-08-08T00:28:01.371Z,43.99
2022-08-08T00:29:01.503Z,44.31
2022-08-08T00:30:01.374Z,42.22
2022-08-08T00:32:21.371Z,47.53
2022-08-08T00:32:29.297Z,45.28
2022-08-08T00:33:02.322Z,44.31
2022-08-08T00:34:18.844Z,47.21
2022-08-08T00:35:27.237Z,44.63
2022-08-08T00:36:01.294Z,41.89
2022-08-08T00:37:03.627Z,41.57
2022-08-08T00:38:02.915Z,39.96
2022-08-08T00:39:01.347Z,39.96
2022-08-08T00:41:09.608Z,40.28
2022-08-08T00:41:10.464Z,40.61
2022-08-08T00:42:09.093Z,46.08
2022-08-08T00:43:06.000Z,43.99
2022-08-08T00:44:02.283Z,42.86
2022-08-08T00:45:03.220Z,41.89
2022-08-08T00:46:01.204Z,45.60
2022-08-08T00:47:01.184Z,43.34
2022-08-08T00:48:05.195Z,42.54
2022-08-08T00:49:02.191Z,45.92
2022-08-08T00:50:01.167Z,45.44
2022-08-08T00:51:01.144Z,42.70
2022-08-08T00:52:01.125Z,43.83
2022-08-08T00:53:01.124Z,41.41
2022-08-08T00:54:04.202Z,41.57
2022-08-08T00:55:02.123Z,41.89
2022-08-08T00:56:01.452Z,42.22
2022-08-08T00:57:01.108Z,43.51
2022-08-08T00:58:01.081Z,42.22
2022-08-08T00:59:01.059Z,46.57
2022-08-08T01:00:01.084Z,43.18
2022-08-08T01:01:01.108Z,43.99
2022-08-08T01:02:01.605Z,45.44
2022-08-08T01:03:58.584Z,50.27
2022-08-08T01:04:04.546Z,44.15
2022-08-08T01:05:02.004Z,42.86
2022-08-08T01:06:02.472Z,44.31
2022-08-08T01:07:01.648Z,40.12
2022-08-08T01:08:00.987Z,41.09
2022-08-08T01:09:00.971Z,40.77
2022-08-08T01:10:06.248Z,43.99
2022-08-08T01:11:00.958Z,43.02
2022-08-08T01:12:00.921Z,42.54
2022-08-08T01:13:00.932Z,43.99
2022-08-08T01:14:00.918Z,50.76
2022-08-08T01:15:00.892Z,43.51
2022-08-08T01:16:00.889Z,44.96
2022-08-08T01:17:00.885Z,46.57
2022-08-08T01:18:02.445Z,44.47
2022-08-08T01:19:02.627Z,42.38
2022-08-08T01:20:02.607Z,43.99
2022-08-08T01:21:00.855Z,47.05
2022-08-08T01:22:10.276Z,44.63
2022-08-08T01:23:01.810Z,44.79
2022-08-08T01:24:06.403Z,47.70
2022-08-08T01:25:02.786Z,48.34
2022-08-08T01:26:02.222Z,48.34
2022-08-08T01:27:01.800Z,48.98
2022-08-08T01:28:01.784Z,44.31
2022-08-08T01:29:00.901Z,42.70
2022-08-08T01:30:03.323Z,42.38
2022-08-08T01:31:00.732Z,45.44
2022-08-08T01:32:06.488Z,46.89
2022-08-08T01:33:01.737Z,47.70
2022-08-08T01:34:01.742Z,50.11
2022-08-08T01:35:00.695Z,42.70
2022-08-08T01:36:01.101Z,42.06
2022-08-08T01:37:01.910Z,44.96
2022-08-08T01:38:00.655Z,47.53
2022-08-08T01:39:00.719Z,43.99
2022-08-08T01:40:00.695Z,49.63
2022-08-08T01:41:00.673Z,47.05
2022-08-08T01:42:00.615Z,40.93
2022-08-08T01:43:00.600Z,44.96
2022-08-08T01:44:00.615Z,45.76
2022-08-08T01:45:00.610Z,48.18
2022-08-08T01:46:00.572Z,42.86
2022-08-08T01:47:00.586Z,44.15
2022-08-08T01:48:23.722Z,44.31
2022-08-08T01:49:01.555Z,43.34
2022-08-08T01:50:00.569Z,45.44
2022-08-08T01:51:00.568Z,43.18
2022-08-08T01:52:53.006Z,43.51
2022-08-08T01:54:04.651Z,49.15
2022-08-08T01:55:25.751Z,46.89
2022-08-08T01:55:46.045Z,50.11
2022-08-08T01:56:30.320Z,48.18
2022-08-08T01:57:01.485Z,47.21
2022-08-08T01:58:12.725Z,47.86
2022-08-08T01:59:02.835Z,50.76
2022-08-08T02:00:00.974Z,49.63
2022-08-08T02:01:00.508Z,49.95
2022-08-08T02:02:05.259Z,48.18
2022-08-08T02:03:01.425Z,47.37
2022-08-08T02:04:01.716Z,46.57
2022-08-08T02:05:00.402Z,45.44
2022-08-08T02:06:00.393Z,47.37
2022-08-08T02:07:00.390Z,49.15
2022-08-08T02:08:00.346Z,48.98
2022-08-08T02:09:00.394Z,46.41
2022-08-08T02:10:03.966Z,47.05
2022-08-08T02:11:01.319Z,44.79
2022-08-08T02:12:01.306Z,43.51
2022-08-08T02:13:00.307Z,43.51
2022-08-08T02:14:00.321Z,42.06
2022-08-08T02:15:00.880Z,43.99
2022-08-08T02:16:00.282Z,44.79
2022-08-08T02:17:00.273Z,44.96
2022-08-08T02:18:00.352Z,43.02
2022-08-08T02:19:00.274Z,47.53
2022-08-08T02:20:09.036Z,50.11
2022-08-08T02:21:05.533Z,50.92
2022-08-08T02:22:01.243Z,50.60
2022-08-08T02:23:00.222Z,47.05
2022-08-08T02:24:00.193Z,50.43
2022-08-08T02:25:00.218Z,46.25
2022-08-08T02:26:00.451Z,48.18
2022-08-08T02:27:01.035Z,43.83
2022-08-08T02:28:00.992Z,44.63
2022-08-08T02:29:00.154Z,48.18
2022-08-08T02:30:00.195Z,44.15
2022-08-08T02:31:02.001Z,45.76
2022-08-08T02:32:04.861Z,46.57
2022-08-08T02:33:01.117Z,51.40
2022-08-08T02:34:08.006Z,51.88
2022-08-08T02:35:10.908Z,48.66
2022-08-08T02:36:04.855Z,48.18
2022-08-08T02:37:01.104Z,47.21
2022-08-08T02:38:00.090Z,49.79
2022-08-08T02:39:01.214Z,48.02
2022-08-08T02:40:00.654Z,47.37
2022-08-08T02:41:00.042Z,47.86
2022-08-08T02:42:05.789Z,47.21
2022-08-08T02:44:38.151Z,48.02
2022-08-08T02:44:42.939Z,48.02
2022-08-08T02:45:00.992Z,50.76
2022-08-08T02:46:00.011Z,48.34
2022-08-08T02:46:59.972Z,46.73
2022-08-08T02:47:59.981Z,48.66
2022-08-08T02:48:59.963Z,50.27
2022-08-08T02:49:59.980Z,52.37
2022-08-08T02:51:00.128Z,50.76
2022-08-08T02:52:02.133Z,48.82
2022-08-08T02:53:00.998Z,47.21
2022-08-08T02:54:00.311Z,51.40
2022-08-08T02:54:59.943Z,49.79
2022-08-08T02:56:00.258Z,49.15
2022-08-08T02:56:59.905Z,50.76
2022-08-08T02:57:59.870Z,52.53
2022-08-08T02:58:59.872Z,49.79
2022-08-08T03:00:26.356Z,52.21
2022-08-08T03:01:00.910Z,50.60
2022-08-08T03:01:59.878Z,49.79
2022-08-08T03:02:59.816Z,52.05
2022-08-08T03:05:05.417Z,50.60
2022-08-08T03:05:09.383Z,49.95
2022-08-08T03:06:00.810Z,52.05
2022-08-08T03:06:59.777Z,53.50
2022-08-08T03:07:59.774Z,51.72
2022-08-08T03:08:59.759Z,50.43
2022-08-08T03:09:59.736Z,49.79
2022-08-08T03:10:59.737Z,49.15
2022-08-08T03:12:02.575Z,52.53
2022-08-08T03:13:02.680Z,52.05
2022-08-08T03:15:56.988Z,50.92
2022-08-08T03:15:58.628Z,48.34
2022-08-08T03:16:05.565Z,51.40
2022-08-08T03:17:01.700Z,51.56
2022-08-08T03:18:06.922Z,51.24
2022-08-08T03:18:59.672Z,53.17
2022-08-08T03:19:59.648Z,52.69
2022-08-08T03:20:59.643Z,50.76
2022-08-08T03:22:00.058Z,51.72
2022-08-08T03:23:00.582Z,50.76
2022-08-08T03:24:01.831Z,52.53
2022-08-08T03:24:59.629Z,52.53
2022-08-08T03:25:59.619Z,53.66
2022-08-08T03:26:59.574Z,52.85
2022-08-08T03:27:59.595Z,53.17
2022-08-08T03:28:59.610Z,53.33
2022-08-08T03:29:59.548Z,55.59
2022-08-08T03:31:22.678Z,53.66
2022-08-08T03:32:06.564Z,53.82
2022-08-08T03:33:07.577Z,53.82
2022-08-08T03:34:01.618Z,54.30
2022-08-08T03:34:59.485Z,53.98
2022-08-08T03:35:59.520Z,54.30
2022-08-08T03:36:59.501Z,57.36
2022-08-08T03:38:57.777Z,56.24
2022-08-08T03:39:15.231Z,56.07
2022-08-08T03:40:03.576Z,56.24
2022-08-08T03:40:59.512Z,54.30
2022-08-08T03:42:11.767Z,54.95
2022-08-08T03:43:18.171Z,54.14
2022-08-08T03:43:59.879Z,55.43
2022-08-08T03:44:59.421Z,53.01
2022-08-08T03:46:06.212Z,50.27
2022-08-08T03:46:59.401Z,52.53
2022-08-08T03:48:00.377Z,56.72
2022-08-08T03:49:15.279Z,55.91
2022-08-08T03:50:02.285Z,53.33
2022-08-08T03:51:00.350Z,54.79
2022-08-08T03:51:59.342Z,53.33
2022-08-08T03:52:59.338Z,55.27
2022-08-08T03:53:59.333Z,56.40
2022-08-08T03:55:09.715Z,57.52
2022-08-08T03:56:04.831Z,56.24
2022-08-08T03:56:59.286Z,52.85
2022-08-08T03:58:33.454Z,52.53
2022-08-08T03:59:00.316Z,53.17
2022-08-08T04:00:08.081Z,54.46
2022-08-08T04:01:20.617Z,55.75
2022-08-08T04:02:13.578Z,55.11
2022-08-08T04:03:00.976Z,55.59
2022-08-08T04:04:01.925Z,54.46
2022-08-08T04:05:00.200Z,53.50
2022-08-08T04:05:59.218Z,54.95
2022-08-08T04:07:01.312Z,53.50
2022-08-08T04:07:59.186Z,52.69
2022-08-08T04:09:10.450Z,52.85
2022-08-08T04:10:05.019Z,53.50
2022-08-08T04:10:59.746Z,54.46
2022-08-08T04:12:00.649Z,54.79
2022-08-08T04:12:59.133Z,54.46
2022-08-08T04:14:03.170Z,52.37
2022-08-08T04:15:00.134Z,55.27
2022-08-08T04:16:05.493Z,54.46
2022-08-08T04:17:00.115Z,57.36
2022-08-08T04:17:59.625Z,54.95
2022-08-08T04:19:00.308Z,54.95
2022-08-08T04:19:59.093Z,55.91
2022-08-08T04:20:59.064Z,54.30
2022-08-08T04:21:59.068Z,55.43
2022-08-08T04:22:59.047Z,55.59
2022-08-08T04:24:05.569Z,54.95
2022-08-08T04:25:00.003Z,55.43
2022-08-08T04:25:58.994Z,55.91
2022-08-08T04:26:59.267Z,56.07
2022-08-08T04:28:02.723Z,54.79
2022-08-08T04:28:59.972Z,57.36
2022-08-08T04:30:01.063Z,54.95
2022-08-08T04:30:58.969Z,53.66
2022-08-08T04:32:00.604Z,56.24
2022-08-08T04:32:58.923Z,58.17
2022-08-08T04:33:58.937Z,55.11
2022-08-08T04:34:58.950Z,56.07
2022-08-08T04:35:58.900Z,54.46
2022-08-08T04:36:58.900Z,55.59
2022-08-08T04:37:58.893Z,56.72
2022-08-08T04:39:47.896Z,54.62
2022-08-08T04:40:06.116Z,53.98
2022-08-08T04:40:58.932Z,54.46
2022-08-08T04:41:58.834Z,53.98
2022-08-08T04:43:00.914Z,55.75
2022-08-08T04:43:58.851Z,56.40
2022-08-08T04:44:58.798Z,56.88
2022-08-08T04:45:58.793Z,53.33
2022-08-08T04:46:58.778Z,54.46
2022-08-08T04:48:00.103Z,54.62
2022-08-08T04:48:58.777Z,55.11
2022-08-08T04:50:04.725Z,54.46
2022-08-08T04:50:58.756Z,54.30
2022-08-08T04:51:58.741Z,52.85
2022-08-08T04:53:04.603Z,55.59
2022-08-08T04:54:39.316Z,52.53
2022-08-08T04:54:59.701Z,53.33
2022-08-08T04:55:58.692Z,53.50
2022-08-08T04:56:58.680Z,50.27
2022-08-08T04:57:59.217Z,53.66
2022-08-08T04:58:58.664Z,53.01
2022-08-08T04:59:59.647Z,53.66
2022-08-08T05:00:58.644Z,51.40
2022-08-08T05:01:59.549Z,51.88
2022-08-08T05:02:58.643Z,52.21
2022-08-08T05:04:11.280Z,51.72
2022-08-08T05:04:59.537Z,50.60
2022-08-08T05:05:58.614Z,50.27
2022-08-08T05:06:58.591Z,52.53
2022-08-08T05:07:58.600Z,52.69
2022-08-08T05:09:02.480Z,52.05
2022-08-08T05:09:59.570Z,52.53
2022-08-08T05:10:58.552Z,53.98
2022-08-08T05:11:58.524Z,52.53
2022-08-08T05:13:01.681Z,53.82
2022-08-08T05:14:02.071Z,53.17
2022-08-08T05:14:58.514Z,54.79
2022-08-08T05:16:51.674Z,53.50
2022-08-08T05:17:00.865Z,51.72
2022-08-08T05:17:58.500Z,53.50
2022-08-08T05:18:58.469Z,53.33
2022-08-08T05:20:11.688Z,53.33
2022-08-08T05:20:59.450Z,53.01
2022-08-08T05:21:59.746Z,53.33
2022-08-08T05:22:58.442Z,52.69
2022-08-08T05:24:04.349Z,50.27
2022-08-08T05:24:59.432Z,50.11
2022-08-08T05:26:00.212Z,51.72
2022-08-08T05:26:59.397Z,52.37
2022-08-08T05:27:58.388Z,50.27
2022-08-08T05:29:06.150Z,52.69
2022-08-08T05:29:59.391Z,53.98
2022-08-08T05:31:08.428Z,51.72
2022-08-08T05:32:03.970Z,52.05
2022-08-08T05:32:59.347Z,52.37
2022-08-08T05:33:58.319Z,51.08
2022-08-08T05:34:58.342Z,51.40
2022-08-08T05:35:58.320Z,53.50
2022-08-08T05:36:58.302Z,52.53
2022-08-08T05:37:58.720Z,52.85
2022-08-08T05:38:58.526Z,50.11
2022-08-08T05:39:58.416Z,53.33
2022-08-08T05:40:58.332Z,49.79
2022-08-08T05:41:58.252Z,50.92
2022-08-08T05:42:58.246Z,49.15
2022-08-08T05:44:04.185Z,51.40
2022-08-08T05:45:00.575Z,51.40
2022-08-08T05:46:03.087Z,53.33
2022-08-08T05:47:03.144Z,51.88
2022-08-08T05:48:00.597Z,54.14
2022-08-08T05:48:58.187Z,53.17
2022-08-08T05:49:58.178Z,50.60
2022-08-08T05:50:58.711Z,51.40
2022-08-08T05:51:58.174Z,50.60
2022-08-08T05:52:58.145Z,51.88
2022-08-08T05:54:27.539Z,48.98
2022-08-08T05:55:03.440Z,52.37
2022-08-08T05:56:11.457Z,51.88
2022-08-08T05:56:59.134Z,53.98
2022-08-08T05:58:05.988Z,52.53
2022-08-08T05:59:03.915Z,52.85
2022-08-08T06:00:23.629Z,52.05
2022-08-08T06:00:58.486Z,51.72
2022-08-08T06:01:58.177Z,51.88
2022-08-08T06:02:59.095Z,50.92
2022-08-08T06:03:58.070Z,53.01
2022-08-08T06:04:58.911Z,48.98
2022-08-08T06:05:59.042Z,48.34
2022-08-08T06:07:00.377Z,49.79
2022-08-08T06:08:02.473Z,49.15
2022-08-08T06:09:00.234Z,49.31
2022-08-08T06:10:02.186Z,48.82
2022-08-08T06:10:57.990Z,50.92
2022-08-08T06:11:58.016Z,49.15
2022-08-08T06:12:57.955Z,49.15
2022-08-08T06:13:57.944Z,51.56
2022-08-08T06:14:58.036Z,52.05
2022-08-08T06:15:57.955Z,52.21
2022-08-08T06:16:57.943Z,51.08
2022-08-08T06:18:20.301Z,51.40
2022-08-08T06:18:57.900Z,51.56
2022-08-08T06:19:57.934Z,50.60
2022-08-08T06:20:57.904Z,51.56
2022-08-08T06:21:58.090Z,49.47
2022-08-08T06:22:58.077Z,49.31
2022-08-08T06:24:04.954Z,52.53
2022-08-08T06:24:57.888Z,50.76
2022-08-08T06:26:42.956Z,51.24
2022-08-08T06:26:58.863Z,52.37
2022-08-08T06:27:57.823Z,51.08
2022-08-08T06:28:57.830Z,50.76
2022-08-08T06:30:01.150Z,49.47
2022-08-08T06:30:58.796Z,49.15
2022-08-08T06:32:11.446Z,50.43
2022-08-08T06:33:01.006Z,53.66
2022-08-08T06:34:27.344Z,48.98
2022-08-08T06:35:30.618Z,48.98
2022-08-08T06:38:16.737Z,51.40
2022-08-08T06:39:16.750Z,52.53
2022-08-08T06:40:16.971Z,50.92
2022-08-08T06:41:16.689Z,48.98
2022-08-08T06:42:16.693Z,49.79
2022-08-08T06:43:16.695Z,48.02
2022-08-08T06:44:18.484Z,52.21
2022-08-08T06:45:17.818Z,52.21
2022-08-08T06:46:17.776Z,50.43
2022-08-08T06:47:21.933Z,49.15
2022-08-08T06:48:17.777Z,48.82
2022-08-08T06:49:17.754Z,50.60
2022-08-08T06:50:32.050Z,50.92
2022-08-08T06:51:18.778Z,48.02
2022-08-08T06:52:17.745Z,52.69
2022-08-08T06:53:20.471Z,49.63
2022-08-08T06:54:17.719Z,49.79
2022-08-08T06:55:17.774Z,50.27
2022-08-08T06:56:17.712Z,52.53
2022-08-08T06:57:17.693Z,50.27
2022-08-08T06:58:18.725Z,49.95
2022-08-08T06:59:17.656Z,51.56
2022-08-08T07:00:17.681Z,48.34
2022-08-08T07:02:16.624Z,49.79
2022-08-08T07:02:29.068Z,49.95
2022-08-08T07:03:52.088Z,50.76
2022-08-08T07:04:38.579Z,54.62
2022-08-08T07:05:20.795Z,51.72
2022-08-08T07:06:18.668Z,50.76
2022-08-08T07:07:17.614Z,52.05
2022-08-08T07:08:17.611Z,50.27
2022-08-08T07:09:18.002Z,50.92
2022-08-08T07:10:18.569Z,50.60
2022-08-08T07:11:22.074Z,48.02
2022-08-08T07:12:18.575Z,50.76
2022-08-08T07:13:17.537Z,49.95
2022-08-08T07:14:17.575Z,50.60
2022-08-08T07:15:32.546Z,49.79
2022-08-08T07:16:18.531Z,51.88
2022-08-08T07:17:19.719Z,48.98
2022-08-08T07:18:36.064Z,51.24
2022-08-08T07:19:18.554Z,48.18
2022-08-08T07:20:17.492Z,50.43
2022-08-08T07:21:19.203Z,49.79
2022-08-08T07:22:19.187Z,51.56
2022-08-08T07:23:23.317Z,49.79
2022-08-08T07:24:18.455Z,49.47
2022-08-08T07:25:19.454Z,50.11
2022-08-08T07:26:21.591Z,49.47
2022-08-08T07:27:18.432Z,47.53
2022-08-08T07:28:19.726Z,48.98
2022-08-08T07:29:58.737Z,48.02
2022-08-08T07:30:25.539Z,46.89
2022-08-08T07:31:18.408Z,50.60
2022-08-08T07:32:17.422Z,49.47
2022-08-08T07:33:18.764Z,50.76
2022-08-08T07:34:20.114Z,47.05
2022-08-08T07:35:17.936Z,48.34
2022-08-08T07:36:17.371Z,49.79
2022-08-08T07:37:17.346Z,48.50
2022-08-08T07:38:20.520Z,50.43
2022-08-08T07:39:17.388Z,49.15
2022-08-08T07:40:20.936Z,49.47
2022-08-08T07:41:23.588Z,50.43
2022-08-08T07:42:18.895Z,50.60
2022-08-08T07:43:17.305Z,51.88
2022-08-08T07:44:36.994Z,53.01
2022-08-08T07:45:18.287Z,51.40
2022-08-08T07:46:29.364Z,51.24
2022-08-08T07:47:18.265Z,51.40
2022-08-08T07:48:17.326Z,49.63
2022-08-08T07:49:17.251Z,50.60
2022-08-08T07:50:23.439Z,51.40
2022-08-08T07:51:23.700Z,49.63
2022-08-08T07:52:22.957Z,48.34
2022-08-08T07:53:52.003Z,53.82
2022-08-08T07:54:26.717Z,48.66
2022-08-08T07:55:18.189Z,48.50
2022-08-08T07:56:17.189Z,50.60
2022-08-08T07:57:19.772Z,49.63
2022-08-08T07:58:17.188Z,47.86
2022-08-08T07:59:19.416Z,50.76
2022-08-08T08:00:17.419Z,48.50
2022-08-08T08:01:17.207Z,48.34
2022-08-08T08:02:35.146Z,48.18
2022-08-08T08:03:23.908Z,48.98
2022-08-08T08:04:17.190Z,50.27
2022-08-08T08:05:17.129Z,49.15
2022-08-08T08:06:17.116Z,51.40
2022-08-08T08:07:17.101Z,48.98
2022-08-08T08:08:17.083Z,48.98
2022-08-08T08:09:17.096Z,51.72
2022-08-08T08:10:17.069Z,51.08
2022-08-08T08:11:20.868Z,48.66
2022-08-08T08:12:31.652Z,50.27
2022-08-08T08:13:18.158Z,49.15
2022-08-08T08:14:17.063Z,50.92
2022-08-08T08:15:17.034Z,49.79
2022-08-08T08:16:17.355Z,50.27
2022-08-08T08:17:17.014Z,50.43
2022-08-08T08:18:17.038Z,49.15
2022-08-08T08:19:17.000Z,48.66
2022-08-08T08:20:16.993Z,48.66
2022-08-08T08:21:18.755Z,49.15
2022-08-08T08:22:31.507Z,49.63
2022-08-08T08:23:16.959Z,51.40
2022-08-08T08:24:18.670Z,50.76
2022-08-08T08:25:32.931Z,49.47
2022-08-08T08:26:27.614Z,51.40
2022-08-08T08:27:17.647Z,49.63
2022-08-08T08:28:23.762Z,51.24
2022-08-08T08:29:19.407Z,49.95
2022-08-08T08:30:16.913Z,49.47
2022-08-08T08:31:17.511Z,49.63
2022-08-08T08:32:32.105Z,51.40
2022-08-08T08:33:17.875Z,49.31
2022-08-08T08:34:16.862Z,50.92
2022-08-08T08:35:16.851Z,50.92
2022-08-08T08:36:20.631Z,49.79
2022-08-08T08:37:20.638Z,48.18
2022-08-08T08:38:17.702Z,49.31
2022-08-08T08:39:17.382Z,49.79
2022-08-08T08:40:16.854Z,48.02
2022-08-08T08:41:20.023Z,47.86
2022-08-08T08:42:19.273Z,47.86
2022-08-08T08:43:18.751Z,50.60
2022-08-08T08:44:16.859Z,50.76
2022-08-08T08:45:22.621Z,47.53
2022-08-08T08:46:19.108Z,45.92
2022-08-08T08:47:16.744Z,48.18
2022-08-08T08:48:19.507Z,49.63
2022-08-08T08:49:16.786Z,51.56
2022-08-08T08:50:27.846Z,50.27
2022-08-08T08:51:17.774Z,50.60
2022-08-08T08:52:16.699Z,50.60
2022-08-08T08:53:54.309Z,50.27
2022-08-08T08:54:17.702Z,51.24
2022-08-08T08:55:20.212Z,46.57
2022-08-08T08:56:23.723Z,50.11
2022-08-08T08:57:17.701Z,48.66
2022-08-08T08:58:16.657Z,48.98
2022-08-08T08:59:18.724Z,49.79
2022-08-08T09:00:17.047Z,51.40
2022-08-08T09:01:16.719Z,50.11
2022-08-08T09:02:16.613Z,48.50
2022-08-08T09:03:16.600Z,47.53
2022-08-08T09:04:31.745Z,46.57
2022-08-08T09:05:48.793Z,48.34
2022-08-08T09:06:26.518Z,47.53
2022-08-08T09:07:17.565Z,48.66
2022-08-08T09:08:20.642Z,48.98
2022-08-08T09:09:18.796Z,49.31
2022-08-08T09:10:17.493Z,51.72
2022-08-08T09:11:16.530Z,51.72
2022-08-08T09:12:16.522Z,48.50
2022-08-08T09:13:16.707Z,48.34
2022-08-08T09:14:16.524Z,49.79
2022-08-08T09:15:18.627Z,49.31
2022-08-08T09:16:17.476Z,49.79
2022-08-08T09:17:41.025Z,48.34
2022-08-08T09:18:18.055Z,49.79
2022-08-08T09:19:25.281Z,47.53
2022-08-08T09:21:59.850Z,45.92
2022-08-08T09:22:01.006Z,51.72
2022-08-08T09:22:25.860Z,50.27
2022-08-08T09:23:25.534Z,47.70
2022-08-08T09:24:17.733Z,50.11
2022-08-08T09:25:16.411Z,51.56
2022-08-08T09:26:16.384Z,49.15
2022-08-08T09:27:20.776Z,50.11
2022-08-08T09:28:35.490Z,48.50
2022-08-08T09:29:22.642Z,50.60
2022-08-08T09:30:20.104Z,48.50
2022-08-08T09:31:16.662Z,49.31
2022-08-08T09:32:16.334Z,47.05
2022-08-08T09:34:15.160Z,48.50
2022-08-08T09:34:32.471Z,47.05
2022-08-08T09:35:17.328Z,47.05
2022-08-08T09:36:19.129Z,49.31
2022-08-08T09:37:57.008Z,50.27
2022-08-08T09:38:17.691Z,48.34
2022-08-08T09:39:19.417Z,48.34
2022-08-08T09:40:18.826Z,47.05
2022-08-08T09:41:16.254Z,48.18
2022-08-08T09:42:21.013Z,45.92
2022-08-08T09:43:40.873Z,49.79
2022-08-08T09:44:18.798Z,48.50
2022-08-08T09:45:54.563Z,50.43
2022-08-08T09:46:16.934Z,50.76
2022-08-08T09:47:26.762Z,49.31
2022-08-08T09:48:22.004Z,46.73
2022-08-08T09:49:41.392Z,47.53
2022-08-08T09:50:17.213Z,47.53
2022-08-08T09:51:16.145Z,49.31
2022-08-08T09:52:56.595Z,47.05
2022-08-08T09:53:23.685Z,46.08
2022-08-08T09:54:18.913Z,47.86
2022-08-08T09:56:01.876Z,48.66
2022-08-08T09:56:22.106Z,47.37
2022-08-08T09:57:17.627Z,48.66
2022-08-08T09:58:20.033Z,48.34
2022-08-08T10:00:01.155Z,44.96
2022-08-08T10:00:49.964Z,45.44
2022-08-08T10:02:00.150Z,48.34
2022-08-08T10:02:17.052Z,50.92
2022-08-08T10:03:16.028Z,49.63
2022-08-08T10:04:38.460Z,49.79
2022-08-08T10:05:16.091Z,47.70
2022-08-08T10:06:16.025Z,48.50
2022-08-08T10:07:16.511Z,48.82
2022-08-08T10:08:15.980Z,47.05
2022-08-08T10:09:15.986Z,49.31
2022-08-08T10:10:15.983Z,48.18
2022-08-08T10:12:27.035Z,49.79
2022-08-08T10:12:27.355Z,46.25
2022-08-08T10:13:16.926Z,48.50
2022-08-08T10:14:28.318Z,47.05
2022-08-08T10:15:17.878Z,45.92
2022-08-08T10:16:15.907Z,48.66
2022-08-08T10:18:05.827Z,50.43
2022-08-08T10:18:25.393Z,47.70
2022-08-08T10:19:16.911Z,46.25
2022-08-08T10:20:17.080Z,48.82
2022-08-08T10:21:26.237Z,48.18
2022-08-08T10:22:16.873Z,49.95
2022-08-08T10:23:41.185Z,49.79
2022-08-08T10:24:29.651Z,46.89
2022-08-08T10:25:16.813Z,49.31
2022-08-08T10:26:29.877Z,46.73
2022-08-08T10:27:16.824Z,49.79
2022-08-08T10:28:15.801Z,48.18
2022-08-08T10:29:22.757Z,48.98
2022-08-08T10:30:16.230Z,49.79
2022-08-08T10:31:16.783Z,51.40
2022-08-08T10:32:16.769Z,48.50
2022-08-08T10:33:17.921Z,49.31
2022-08-08T10:34:18.985Z,46.08
2022-08-08T10:36:06.889Z,44.31
2022-08-08T10:36:22.400Z,48.66
2022-08-08T10:37:16.720Z,48.66
2022-08-08T10:38:16.359Z,48.98
2022-08-08T10:39:15.747Z,48.18
2022-08-08T10:40:16.552Z,47.21
2022-08-08T10:41:15.680Z,46.08
2022-08-08T10:42:17.025Z,46.89
2022-08-08T10:43:16.673Z,47.53
2022-08-08T10:44:15.661Z,47.70
2022-08-08T10:45:16.343Z,49.47
2022-08-08T10:46:27.647Z,51.40
2022-08-08T10:47:20.729Z,50.11
2022-08-08T10:48:15.611Z,48.34
2022-08-08T10:50:00.663Z,49.31
2022-08-08T10:50:16.082Z,49.47
2022-08-08T10:51:15.614Z,49.47
2022-08-08T10:52:15.607Z,49.95
2022-08-08T10:53:15.630Z,49.63
2022-08-08T10:54:15.586Z,46.73
2022-08-08T10:55:39.584Z,49.47
2022-08-08T10:56:27.929Z,46.73
2022-08-08T10:57:15.530Z,48.18
2022-08-08T10:58:16.532Z,48.82
2022-08-08T10:59:15.547Z,48.02
2022-08-08T11:00:15.512Z,48.50
2022-08-08T11:01:15.786Z,48.02
2022-08-08T11:02:15.526Z,48.50
2022-08-08T11:03:15.793Z,48.34
2022-08-08T11:04:16.461Z,47.86
2022-08-08T11:05:17.751Z,48.50
2022-08-08T11:06:15.465Z,48.98
2022-08-08T11:08:30.168Z,47.05
2022-08-08T11:08:37.193Z,47.53
2022-08-08T11:09:21.536Z,50.27
2022-08-08T11:10:19.569Z,50.27
2022-08-08T11:11:32.228Z,47.70
2022-08-08T11:12:16.417Z,47.05
2022-08-08T11:13:31.975Z,49.31
2022-08-08T11:14:17.373Z,50.27
2022-08-08T11:15:15.364Z,49.63
2022-08-08T11:16:32.202Z,48.66
2022-08-08T11:17:16.384Z,50.11
2022-08-08T11:18:16.327Z,47.37
2022-08-08T11:19:17.298Z,48.18
2022-08-08T11:20:18.025Z,50.11
2022-08-08T11:21:19.736Z,48.50
2022-08-08T11:22:16.284Z,49.79
2022-08-08T11:23:15.313Z,48.02
2022-08-08T11:24:15.279Z,49.47
2022-08-08T11:25:16.498Z,48.50
2022-08-08T11:26:18.774Z,49.95
2022-08-08T11:27:19.612Z,51.24
2022-08-08T11:28:15.257Z,50.43
2022-08-08T11:29:15.791Z,50.76
2022-08-08T11:30:24.084Z,47.05
2022-08-08T11:31:16.217Z,46.08
2022-08-08T11:32:15.232Z,49.15
2022-08-08T11:33:15.188Z,49.95
2022-08-08T11:34:23.001Z,47.86
2022-08-08T11:35:27.685Z,49.31
2022-08-08T11:36:16.162Z,48.34
2022-08-08T11:37:15.715Z,48.02
2022-08-08T11:38:38.509Z,49.63
2022-08-08T11:39:16.193Z,48.18
2022-08-08T11:40:15.217Z,45.12
2022-08-08T11:41:15.115Z,46.73
2022-08-08T11:42:15.104Z,46.57
2022-08-08T11:43:15.093Z,46.25
2022-08-08T11:44:15.111Z,46.57
2022-08-08T11:45:18.435Z,48.18
2022-08-08T11:46:18.148Z,46.25
2022-08-08T11:47:17.000Z,47.05
2022-08-08T11:48:20.450Z,46.08
2022-08-08T11:49:17.186Z,45.60
2022-08-08T11:50:15.028Z,48.34
2022-08-08T11:51:38.093Z,48.50
2022-08-08T11:52:18.460Z,48.02
2022-08-08T11:53:16.013Z,48.82
2022-08-08T11:54:31.941Z,47.53
2022-08-08T11:55:16.012Z,49.79
2022-08-08T11:56:14.975Z,47.86
2022-08-08T11:57:17.291Z,48.18
2022-08-08T11:58:15.733Z,48.34
2022-08-08T11:59:14.974Z,47.86
2022-08-08T12:00:15.037Z,48.50
2022-08-08T12:01:16.420Z,48.18
2022-08-08T12:02:31.287Z,48.98
2022-08-08T12:03:16.985Z,46.25
2022-08-08T12:04:14.903Z,49.63
2022-08-08T12:05:14.909Z,49.95
2022-08-08T12:06:14.886Z,48.34
2022-08-08T12:07:17.219Z,48.66
2022-08-08T12:08:14.896Z,48.18
2022-08-08T12:09:17.029Z,47.37
2022-08-08T12:10:15.073Z,50.27
2022-08-08T12:11:22.955Z,47.05
2022-08-08T12:12:16.917Z,48.02
2022-08-08T12:13:14.837Z,45.92
2022-08-08T12:14:14.814Z,48.66
2022-08-08T12:15:14.794Z,48.02
2022-08-08T12:16:15.628Z,47.37
2022-08-08T12:17:14.787Z,46.57
2022-08-08T12:18:14.789Z,50.27
2022-08-08T12:19:14.781Z,45.60
2022-08-08T12:20:14.830Z,46.57
2022-08-08T12:21:14.753Z,46.25
2022-08-08T12:22:20.546Z,47.86
2022-08-08T12:23:30.328Z,45.60
2022-08-08T12:24:15.718Z,46.08
2022-08-08T12:25:14.701Z,46.25
2022-08-08T12:26:17.301Z,49.31
2022-08-08T12:27:18.265Z,47.53
2022-08-08T12:28:15.638Z,48.34
2022-08-08T12:29:15.674Z,49.79
2022-08-08T12:30:15.958Z,48.98
2022-08-08T12:31:15.655Z,48.34
2022-08-08T12:32:19.871Z,49.15
2022-08-08T12:33:15.629Z,47.70
2022-08-08T12:34:14.622Z,49.47
2022-08-08T12:35:17.922Z,48.50
2022-08-08T12:36:49.230Z,48.02
2022-08-08T12:37:14.604Z,48.98
2022-08-08T12:38:17.700Z,47.37
2022-08-08T12:39:14.614Z,48.34
2022-08-08T12:40:24.160Z,46.57
2022-08-08T12:41:26.985Z,46.57
2022-08-08T12:42:21.440Z,47.05
2022-08-08T12:43:15.550Z,47.21
2022-08-08T12:44:14.508Z,49.63
2022-08-08T12:45:58.657Z,50.11
2022-08-08T12:46:19.049Z,49.47
2022-08-08T12:47:14.503Z,50.92
2022-08-08T12:48:35.856Z,50.76
2022-08-08T12:49:25.160Z,49.79
2022-08-08T12:50:16.474Z,49.79
2022-08-08T12:51:14.449Z,48.66
2022-08-08T12:52:28.680Z,48.50
2022-08-08T12:53:15.448Z,47.37
2022-08-08T12:54:24.365Z,49.79